Time;durP1;ratioP1;P1;durP2;ratioP2;P2;SDS_P1;SDS_P2;PMS_P1;PMS_P2;Temp;Humidity;BMP_temperature;BMP_pressure;BME280_temperature;BME280_humidity;BME280_pressure;Samples;Min_cycle;Max_cycle;Signal;HPM_P1;HPM_P2
2024/01/14 00:01:57;;;;;;;0.00;0.00;;;4.40;88.30;;;;;;4987952;28;20237;-70
2024/01/14 00:04:23;;;;;;;0.00;0.00;;;4.50;88.30;;;;;;4988540;28;20042;-70
2024/01/14 00:06:49;;;;;;;0.00;0.00;;;4.50;88.10;;;;;;4988694;28;20061;-70
2024/01/14 00:09:19;;;;;;;0.00;0.00;;;4.60;88.10;;;;;;4987231;28;20049;-70
2024/01/14 00:11:45;;;;;;;0.10;0.10;;;4.50;88.30;;;;;;4989066;28;20054;-70
2024/01/14 00:14:10;;;;;;;0.10;0.10;;;4.50;88.40;;;;;;4988049;28;20050;-70
2024/01/14 00:16:36;;;;;;;0.00;0.00;;;4.50;88.40;;;;;;4988964;28;20145;-70
2024/01/14 00:19:03;;;;;;;0.00;0.00;;;4.50;88.70;;;;;;4987654;28;20038;-70
2024/01/14 00:21:29;;;;;;;0.10;0.10;;;4.60;88.70;;;;;;4988722;28;20054;-68
2024/01/14 00:23:55;;;;;;;0.55;0.40;;;4.60;88.60;;;;;;4987506;28;20077;-68
2024/01/14 00:26:20;;;;;;;0.00;0.00;;;4.70;88.80;;;;;;4988940;28;20078;-68
2024/01/14 00:28:47;;;;;;;0.00;0.00;;;5.00;89.10;;;;;;4987933;28;20193;-68
2024/01/14 00:31:12;;;;;;;0.00;0.00;;;5.10;89.40;;;;;;4987996;28;20077;-69
2024/01/14 00:33:40;;;;;;;0.00;0.00;;;5.00;89.40;;;;;;4988481;28;20105;-68
2024/01/14 00:36:07;;;;;;;0.10;0.10;;;5.00;89.60;;;;;;4987827;28;20049;-68
2024/01/14 00:38:33;;;;;;;0.00;0.00;;;5.00;89.50;;;;;;4988173;28;20122;-68
2024/01/14 00:40:58;;;;;;;0.00;0.00;;;5.10;89.60;;;;;;4991240;28;20522;-68
2024/01/14 00:43:24;;;;;;;0.80;0.80;;;5.00;89.70;;;;;;4993539;28;20660;-68
2024/01/14 00:45:50;;;;;;;0.22;0.22;;;4.90;89.70;;;;;;4987256;28;20137;-68
2024/01/14 00:48:16;;;;;;;0.00;0.00;;;4.90;89.90;;;;;;4987137;28;20045;-69
2024/01/14 00:50:41;;;;;;;0.00;0.00;;;4.90;89.70;;;;;;4988796;28;20075;-69
2024/01/14 00:53:07;;;;;;;0.00;0.00;;;4.90;89.90;;;;;;4994749;28;20046;-69
2024/01/14 00:55:33;;;;;;;0.00;0.00;;;4.90;90.00;;;;;;4979303;28;20050;-69
2024/01/14 00:57:58;;;;;;;0.10;0.10;;;4.90;90.20;;;;;;4983784;28;20053;-69
2024/01/14 01:00:24;;;;;;;0.00;0.00;;;4.90;90.30;;;;;;4986515;28;20042;-70
2024/01/14 01:02:50;;;;;;;21.02;1.83;;;4.90;90.10;;;;;;4998436;28;20096;-69
2024/01/14 01:05:16;;;;;;;0.10;0.10;;;4.90;90.20;;;;;;4970215;28;20463;-69
2024/01/14 01:07:41;;;;;;;0.00;0.00;;;5.00;89.80;;;;;;4987964;28;20043;-69
2024/01/14 01:10:07;;;;;;;0.00;0.00;;;4.90;89.50;;;;;;4986926;28;20416;-68
2024/01/14 01:12:34;;;;;;;0.00;0.00;;;4.90;89.20;;;;;;4994122;28;20377;-68
2024/01/14 01:15:00;;;;;;;0.00;0.00;;;4.70;88.80;;;;;;4992544;28;20416;-70
2024/01/14 01:17:26;;;;;;;0.08;0.08;;;4.70;88.80;;;;;;4990426;28;20515;-70
2024/01/14 01:19:51;;;;;;;0.30;0.30;;;4.60;88.70;;;;;;4993613;28;20124;-70
2024/01/14 01:22:17;;;;;;;0.00;0.00;;;4.60;88.70;;;;;;5003599;28;20090;-70
2024/01/14 01:24:43;;;;;;;0.00;0.00;;;4.50;88.80;;;;;;4997552;28;20054;-70
2024/01/14 01:27:09;;;;;;;0.00;0.00;;;4.40;89.20;;;;;;4991418;28;20092;-70
2024/01/14 01:29:35;;;;;;;0.00;0.00;;;4.40;89.30;;;;;;4991272;28;20054;-69
2024/01/14 01:32:01;;;;;;;0.10;0.10;;;4.40;89.40;;;;;;4989197;28;20050;-70
2024/01/14 01:34:26;;;;;;;0.10;0.10;;;4.40;89.70;;;;;;4986837;28;20049;-70
2024/01/14 01:36:52;;;;;;;0.00;0.00;;;4.40;89.80;;;;;;4991008;28;20538;-70
2024/01/14 01:39:18;;;;;;;0.00;0.00;;;4.40;90.10;;;;;;4990651;28;20034;-70
2024/01/14 01:41:43;;;;;;;8.50;2.42;;;4.40;90.00;;;;;;4991237;28;20049;-70
2024/01/14 01:44:09;;;;;;;0.00;0.00;;;4.40;89.90;;;;;;4987075;28;20042;-70
2024/01/14 01:46:35;;;;;;;0.00;0.00;;;4.40;89.80;;;;;;4990847;28;20129;-70
2024/01/14 01:49:02;;;;;;;0.00;0.00;;;4.40;89.80;;;;;;4990076;28;20060;-70
2024/01/14 01:51:29;;;;;;;0.00;0.00;;;4.30;89.60;;;;;;4989509;28;20161;-70
2024/01/14 01:53:56;;;;;;;0.00;0.00;;;4.30;89.80;;;;;;4990612;28;20046;-70
2024/01/14 01:56:23;;;;;;;0.00;0.00;;;4.20;89.80;;;;;;4990664;28;20487;-70
2024/01/14 01:58:49;;;;;;;0.00;0.00;;;4.20;90.00;;;;;;4990774;28;20052;-70
2024/01/14 02:01:15;;;;;;;3.22;1.27;;;4.20;90.20;;;;;;4990984;28;20570;-70
2024/01/14 02:03:41;;;;;;;4.63;3.60;;;4.10;90.50;;;;;;5002696;28;20034;-69
2024/01/14 02:06:10;;;;;;;0.38;0.38;;;4.10;90.50;;;;;;4989415;28;20042;-70
2024/01/14 02:08:36;;;;;;;0.00;0.00;;;4.20;90.60;;;;;;4992069;28;20446;-70
2024/01/14 02:11:02;;;;;;;0.00;0.00;;;4.20;90.70;;;;;;4995562;28;20099;-70
2024/01/14 02:13:28;;;;;;;2.45;1.55;;;4.10;90.70;;;;;;5009757;28;20042;-70
2024/01/14 02:15:54;;;;;;;0.00;0.00;;;4.10;90.60;;;;;;4990506;28;20046;-70
2024/01/14 02:18:20;;;;;;;2.53;2.35;;;4.10;90.80;;;;;;4990581;28;20117;-70
2024/01/14 02:20:46;;;;;;;0.00;0.00;;;4.10;90.70;;;;;;4990985;28;20054;-70
2024/01/14 02:23:15;;;;;;;0.10;0.10;;;4.10;90.90;;;;;;4988062;28;20059;-70
2024/01/14 02:25:41;;;;;;;0.05;0.05;;;4.10;91.00;;;;;;4992920;28;20047;-70
2024/01/14 02:28:07;;;;;;;0.00;0.00;;;4.20;90.90;;;;;;4990109;28;20034;-70
2024/01/14 02:30:35;;;;;;;0.05;0.05;;;4.20;91.00;;;;;;4990447;28;20129;-70
2024/01/14 02:33:02;;;;;;;0.00;0.00;;;4.20;90.90;;;;;;4994733;28;20034;-70
2024/01/14 02:35:27;;;;;;;0.00;0.00;;;4.20;90.70;;;;;;4999199;28;20052;-70
2024/01/14 02:37:54;;;;;;;0.00;0.00;;;4.20;90.70;;;;;;4995374;28;20046;-70
2024/01/14 02:40:20;;;;;;;0.00;0.00;;;4.20;90.60;;;;;;4988833;28;20054;-70
2024/01/14 02:42:46;;;;;;;0.00;0.00;;;4.20;90.60;;;;;;5007942;28;20387;-70
2024/01/14 02:45:12;;;;;;;0.00;0.00;;;4.20;90.60;;;;;;4991257;28;20054;-70
2024/01/14 02:47:37;;;;;;;0.00;0.00;;;4.20;90.70;;;;;;4989903;28;20050;-70
2024/01/14 02:50:03;;;;;;;0.00;0.00;;;4.10;90.70;;;;;;4989057;28;20038;-70
2024/01/14 02:52:30;;;;;;;3.03;1.38;;;4.10;90.90;;;;;;4989911;28;20053;-70
2024/01/14 02:54:55;;;;;;;0.10;0.10;;;4.00;90.90;;;;;;4988866;28;20491;-69
2024/01/14 02:57:21;;;;;;;0.00;0.00;;;4.10;91.00;;;;;;4989600;28;20039;-70
2024/01/14 02:59:47;;;;;;;0.00;0.00;;;4.00;90.80;;;;;;4989759;28;20093;-70
2024/01/14 03:02:12;;;;;;;0.30;0.30;;;3.90;90.90;;;;;;4989526;28;20046;-70
2024/01/14 03:04:38;;;;;;;0.10;0.10;;;3.90;90.90;;;;;;4996659;28;20038;-70
2024/01/14 03:07:04;;;;;;;0.00;0.00;;;3.80;90.90;;;;;;4989363;28;20133;-70
2024/01/14 03:09:29;;;;;;;0.10;0.10;;;3.80;91.00;;;;;;4989658;28;20054;-70
2024/01/14 03:11:55;;;;;;;0.10;0.10;;;3.70;91.00;;;;;;4997178;28;20439;-70
2024/01/14 03:14:21;;;;;;;0.00;0.00;;;3.80;91.00;;;;;;4997241;28;20458;-70
2024/01/14 03:16:46;;;;;;;0.00;0.00;;;3.80;91.10;;;;;;4989501;28;20038;-70
2024/01/14 03:19:12;;;;;;;0.10;0.10;;;3.70;91.20;;;;;;4989182;28;20532;-70
2024/01/14 03:21:38;;;;;;;0.60;0.60;;;3.70;91.20;;;;;;4999484;28;20096;-70
2024/01/14 03:24:03;;;;;;;0.00;0.00;;;3.70;91.30;;;;;;4995345;28;20393;-70
2024/01/14 03:26:29;;;;;;;0.00;0.00;;;3.70;91.50;;;;;;4988948;28;20077;-70
2024/01/14 03:28:55;;;;;;;0.10;0.10;;;3.70;91.60;;;;;;4989036;28;20046;-70
2024/01/14 03:31:21;;;;;;;0.10;0.10;;;3.70;91.60;;;;;;4990103;28;20092;-70
2024/01/14 03:33:47;;;;;;;0.00;0.00;;;3.80;91.70;;;;;;4989230;28;20112;-70
2024/01/14 03:36:15;;;;;;;0.00;0.00;;;3.70;91.80;;;;;;4988299;28;20073;-70
2024/01/14 03:38:41;;;;;;;0.00;0.00;;;3.90;91.80;;;;;;4989004;28;20050;-70
2024/01/14 03:41:07;;;;;;;0.00;0.00;;;3.90;91.90;;;;;;4989709;28;20038;-70
2024/01/14 03:43:33;;;;;;;0.00;0.00;;;3.80;91.90;;;;;;4988399;28;20404;-70
2024/01/14 03:45:58;;;;;;;0.00;0.00;;;3.90;92.00;;;;;;4989200;28;20406;-70
2024/01/14 03:48:24;;;;;;;0.00;0.00;;;3.90;91.90;;;;;;4989099;28;20042;-70
2024/01/14 03:50:50;;;;;;;0.05;0.05;;;3.90;92.00;;;;;;4988909;28;20066;-70
2024/01/14 03:53:15;;;;;;;0.00;0.00;;;4.00;92.20;;;;;;4970735;28;20450;-70
2024/01/14 03:55:42;;;;;;;0.00;0.00;;;4.00;92.20;;;;;;4989033;28;20396;-70
2024/01/14 03:58:08;;;;;;;2.92;2.65;;;3.90;92.20;;;;;;4988784;28;20507;-69
2024/01/14 04:00:34;;;;;;;0.20;0.20;;;4.00;92.50;;;;;;4970118;28;20056;-70
2024/01/14 04:02:59;;;;;;;0.00;0.00;;;4.00;92.30;;;;;;4988374;28;20454;-70
2024/01/14 04:05:25;;;;;;;0.00;0.00;;;4.00;92.50;;;;;;4988949;28;20088;-70
2024/01/14 04:07:51;;;;;;;0.00;0.00;;;4.00;92.70;;;;;;4988400;28;20046;-70
2024/01/14 04:10:16;;;;;;;0.43;0.43;;;4.00;92.60;;;;;;4988008;28;20096;-69
2024/01/14 04:12:42;;;;;;;0.00;0.00;;;4.10;92.50;;;;;;4988249;28;20096;-70
2024/01/14 04:15:09;;;;;;;0.00;0.00;;;4.10;92.30;;;;;;4988989;28;20368;-69
2024/01/14 04:17:34;;;;;;;0.00;0.00;;;4.10;92.20;;;;;;4986948;28;20577;-70
2024/01/14 04:20:01;;;;;;;0.00;0.00;;;4.10;92.10;;;;;;4988011;28;20043;-70
2024/01/14 04:22:26;;;;;;;0.15;0.15;;;4.00;92.10;;;;;;4988643;28;20070;-70
2024/01/14 04:24:52;;;;;;;0.00;0.00;;;4.00;92.10;;;;;;4988630;28;20043;-70
2024/01/14 04:27:18;;;;;;;0.13;0.13;;;3.90;92.10;;;;;;4988328;28;20035;-70
2024/01/14 04:29:44;;;;;;;0.43;0.43;;;4.00;92.20;;;;;;4987033;28;20050;-70
2024/01/14 04:32:10;;;;;;;3.40;1.38;;;3.90;92.10;;;;;;4988216;28;20571;-70
2024/01/14 04:34:36;;;;;;;0.00;0.00;;;3.90;92.10;;;;;;4988478;28;20050;-70
2024/01/14 04:37:02;;;;;;;0.00;0.00;;;3.90;92.20;;;;;;4988340;28;20045;-70
2024/01/14 04:39:28;;;;;;;0.00;0.00;;;3.90;92.30;;;;;;4988499;28;20399;-70
2024/01/14 04:41:54;;;;;;;0.00;0.00;;;3.90;92.30;;;;;;4978517;28;20046;-70
2024/01/14 04:44:20;;;;;;;0.08;0.08;;;4.00;92.30;;;;;;4988754;28;20403;-70
2024/01/14 04:46:46;;;;;;;0.10;0.10;;;4.00;92.20;;;;;;4988832;28;20039;-70
2024/01/14 04:49:11;;;;;;;0.00;0.00;;;3.90;92.20;;;;;;4991521;28;20121;-70
2024/01/14 04:51:38;;;;;;;0.00;0.00;;;3.90;92.30;;;;;;4997258;28;20038;-70
2024/01/14 04:54:04;;;;;;;0.00;0.00;;;3.90;92.20;;;;;;5001194;28;20062;-70
2024/01/14 04:56:30;;;;;;;0.00;0.00;;;3.90;92.10;;;;;;4991861;28;20058;-70
2024/01/14 04:58:56;;;;;;;0.00;0.00;;;3.90;92.20;;;;;;4992075;28;20043;-70
2024/01/14 05:01:21;;;;;;;0.00;0.00;;;3.90;92.30;;;;;;4992488;28;20050;-70
2024/01/14 05:03:47;;;;;;;0.00;0.00;;;3.90;92.30;;;;;;4992810;28;20034;-69
2024/01/14 05:06:13;;;;;;;0.10;0.10;;;3.80;92.30;;;;;;4995479;28;20046;-69
2024/01/14 05:08:44;;;;;;;0.88;0.88;;;3.90;92.40;;;;;;4992499;28;20054;-69
2024/01/14 05:11:10;;;;;;;0.00;0.00;;;4.00;92.40;;;;;;4997399;28;20045;-70
2024/01/14 05:13:35;;;;;;;0.00;0.00;;;4.00;92.50;;;;;;5008264;28;20400;-69
2024/01/14 05:16:01;;;;;;;0.10;0.10;;;4.00;92.40;;;;;;4996869;28;20117;-69
2024/01/14 05:18:28;;;;;;;0.00;0.00;;;4.10;92.50;;;;;;4992518;28;20050;-69
2024/01/14 05:20:53;;;;;;;0.10;0.10;;;4.10;92.50;;;;;;4990614;28;20049;-69
2024/01/14 05:23:21;;;;;;;0.00;0.00;;;4.00;92.30;;;;;;4999870;28;20050;-69
2024/01/14 05:25:46;;;;;;;0.10;0.10;;;4.00;92.30;;;;;;4990785;28;20042;-70
2024/01/14 05:28:12;;;;;;;0.00;0.00;;;4.00;92.30;;;;;;4991055;28;20038;-70
2024/01/14 05:30:37;;;;;;;0.00;0.00;;;4.00;92.30;;;;;;4991567;28;20056;-70
2024/01/14 05:33:03;;;;;;;0.00;0.00;;;4.00;92.20;;;;;;4990565;28;20524;-70
2024/01/14 05:35:30;;;;;;;0.70;0.70;;;4.00;92.30;;;;;;4990739;28;20137;-70
2024/01/14 05:37:56;;;;;;;0.85;0.85;;;3.90;92.20;;;;;;5004628;28;20057;-70
2024/01/14 05:40:22;;;;;;;0.00;0.00;;;3.90;92.20;;;;;;4998366;28;20043;-70
2024/01/14 05:42:48;;;;;;;0.10;0.10;;;3.90;92.10;;;;;;4994368;28;20389;-70
2024/01/14 05:45:14;;;;;;;0.00;0.00;;;3.90;92.00;;;;;;4990613;28;20039;-70
2024/01/14 05:47:40;;;;;;;0.00;0.00;;;3.90;92.10;;;;;;4990959;28;20082;-70
2024/01/14 05:50:07;;;;;;;0.00;0.00;;;3.90;92.10;;;;;;4989561;28;20046;-69
2024/01/14 05:52:33;;;;;;;0.10;0.10;;;4.00;92.20;;;;;;4989837;28;20447;-70
2024/01/14 05:54:59;;;;;;;0.00;0.00;;;3.90;92.10;;;;;;4994295;28;20913;-69
2024/01/14 05:57:25;;;;;;;0.00;0.00;;;4.00;92.20;;;;;;4990390;28;20034;-70
2024/01/14 05:59:50;;;;;;;0.10;0.10;;;4.00;92.20;;;;;;4990916;28;20057;-70
2024/01/14 06:02:16;;;;;;;0.00;0.00;;;4.00;92.30;;;;;;4990736;28;20125;-70
2024/01/14 06:04:42;;;;;;;0.00;0.00;;;4.00;92.20;;;;;;4990887;28;20052;-70
2024/01/14 06:07:09;;;;;;;0.00;0.00;;;4.10;92.30;;;;;;4989803;28;20042;-70
2024/01/14 06:09:34;;;;;;;0.10;0.10;;;4.00;92.20;;;;;;4990725;28;20050;-70
2024/01/14 06:12:00;;;;;;;0.10;0.10;;;4.00;92.20;;;;;;4992430;28;20053;-70
2024/01/14 06:14:26;;;;;;;0.03;0.03;;;4.10;92.20;;;;;;4991588;28;20519;-70
2024/01/14 06:16:51;;;;;;;0.03;0.03;;;4.00;92.10;;;;;;4991032;28;20499;-70
2024/01/14 06:19:17;;;;;;;0.10;0.10;;;4.00;92.10;;;;;;4990058;28;20376;-70
2024/01/14 06:21:43;;;;;;;0.10;0.10;;;4.00;92.20;;;;;;4990024;28;20042;-70
2024/01/14 06:24:12;;;;;;;0.03;0.03;;;4.00;92.10;;;;;;4990306;28;20050;-69
2024/01/14 06:26:38;;;;;;;0.03;0.03;;;4.00;92.20;;;;;;4986838;28;20038;-70
2024/01/14 06:29:03;;;;;;;0.08;0.08;;;4.00;92.20;;;;;;4989347;28;20042;-70
2024/01/14 06:31:29;;;;;;;0.00;0.00;;;4.00;92.20;;;;;;4992502;28;20092;-70
2024/01/14 06:33:55;;;;;;;0.00;0.00;;;4.00;92.20;;;;;;5004577;28;20066;-70
2024/01/14 06:36:21;;;;;;;0.00;0.00;;;4.00;92.20;;;;;;4989964;28;20511;-70
2024/01/14 06:38:47;;;;;;;0.20;0.20;;;4.00;92.20;;;;;;4990518;28;20038;-70
2024/01/14 06:41:20;;;;;;;0.05;0.05;;;4.00;92.20;;;;;;4989326;28;20052;-70
2024/01/14 06:43:46;;;;;;;0.00;0.00;;;4.10;92.30;;;;;;4988634;28;20096;-70
2024/01/14 06:46:13;;;;;;;0.65;0.65;;;4.00;92.10;;;;;;4991654;28;20046;-70
2024/01/14 06:48:39;;;;;;;0.10;0.10;;;3.90;92.20;;;;;;4990226;28;20046;-70
2024/01/14 06:51:04;;;;;;;0.10;0.10;;;4.00;92.30;;;;;;4996156;28;20054;-70
2024/01/14 06:53:30;;;;;;;0.00;0.00;;;4.00;92.20;;;;;;4991142;28;20054;-70
2024/01/14 06:55:56;;;;;;;0.00;0.00;;;4.00;92.30;;;;;;4989497;28;20153;-70
2024/01/14 06:58:22;;;;;;;0.00;0.00;;;4.00;92.30;;;;;;4989616;28;20122;-70
2024/01/14 07:00:47;;;;;;;0.00;0.00;;;4.00;92.30;;;;;;4989856;28;20121;-70
2024/01/14 07:03:13;;;;;;;33.10;1.33;;;4.00;92.30;;;;;;4975529;28;20039;-70
2024/01/14 07:05:39;;;;;;;0.10;0.10;;;4.00;92.40;;;;;;4979228;28;20066;-70
2024/01/14 07:08:05;;;;;;;0.00;0.00;;;4.10;92.30;;;;;;4989349;28;20519;-70
2024/01/14 07:10:31;;;;;;;0.03;0.03;;;4.00;92.30;;;;;;4989179;28;20081;-70
2024/01/14 07:12:57;;;;;;;0.08;0.08;;;3.90;92.30;;;;;;4987129;28;20507;-70
2024/01/14 07:15:24;;;;;;;0.10;0.10;;;3.90;92.40;;;;;;4988589;28;20054;-68
2024/01/14 07:17:50;;;;;;;0.00;0.00;;;3.90;92.30;;;;;;4989132;28;20092;-68
2024/01/14 07:20:16;;;;;;;0.00;0.00;;;3.90;92.30;;;;;;4986965;28;20049;-67
2024/01/14 07:22:42;;;;;;;0.00;0.00;;;3.90;92.40;;;;;;4996957;28;20042;-70
2024/01/14 07:25:10;;;;;;;0.00;0.00;;;3.90;92.30;;;;;;4988380;28;20046;-70
2024/01/14 07:27:36;;;;;;;0.00;0.00;;;3.90;92.20;;;;;;4988545;28;20081;-69
2024/01/14 07:30:03;;;;;;;0.10;0.10;;;3.90;92.30;;;;;;4989489;28;20049;-69
2024/01/14 07:32:28;;;;;;;0.05;0.05;;;3.80;92.30;;;;;;4992009;28;20042;-69
2024/01/14 07:34:57;;;;;;;0.00;0.00;;;3.80;92.20;;;;;;4997023;28;20042;-70
2024/01/14 07:37:23;;;;;;;0.00;0.00;;;3.80;92.10;;;;;;5000899;28;20046;-69
2024/01/14 07:39:49;;;;;;;0.10;0.10;;;3.80;92.10;;;;;;5001602;28;20042;-70
2024/01/14 07:42:16;;;;;;;0.00;0.00;;;3.80;92.30;;;;;;4987947;28;20038;-70
2024/01/14 07:44:42;;;;;;;0.00;0.00;;;3.70;92.20;;;;;;4991949;28;20045;-69
2024/01/14 07:47:08;;;;;;;0.00;0.00;;;3.80;92.20;;;;;;4992018;28;20407;-70
2024/01/14 07:49:33;;;;;;;0.00;0.00;;;3.70;92.20;;;;;;4991598;28;20077;-70
2024/01/14 07:51:59;;;;;;;0.00;0.00;;;3.70;92.20;;;;;;4988697;28;20042;-70
2024/01/14 07:54:25;;;;;;;0.00;0.00;;;3.70;92.30;;;;;;5002154;28;20093;-70
2024/01/14 07:56:51;;;;;;;0.00;0.00;;;3.70;92.20;;;;;;4993874;28;20045;-70
2024/01/14 07:59:20;;;;;;;0.10;0.10;;;3.70;92.10;;;;;;4998214;28;20042;-70
2024/01/14 08:01:46;;;;;;;0.03;0.03;;;3.70;92.20;;;;;;4994918;28;20129;-70
2024/01/14 08:04:12;;;;;;;0.10;0.10;;;3.70;92.20;;;;;;4989186;28;20140;-70
2024/01/14 08:06:38;;;;;;;2.17;1.50;;;3.70;92.30;;;;;;4990069;28;20050;-70
2024/01/14 08:09:03;;;;;;;0.00;0.00;;;3.60;92.20;;;;;;4996958;28;20038;-70
2024/01/14 08:11:29;;;;;;;0.10;0.10;;;3.60;92.20;;;;;;4986788;28;20105;-68
2024/01/14 08:13:55;;;;;;;0.10;0.10;;;3.70;92.30;;;;;;4993284;28;20057;-67
2024/01/14 08:16:20;;;;;;;0.10;0.10;;;3.70;92.30;;;;;;4987224;28;20121;-68
2024/01/14 08:18:46;;;;;;;0.00;0.00;;;3.70;92.30;;;;;;4986124;28;20046;-68
2024/01/14 08:21:12;;;;;;;0.00;0.00;;;3.70;92.30;;;;;;4986314;28;20570;-69
2024/01/14 08:23:38;;;;;;;0.00;0.00;;;3.70;92.20;;;;;;4988722;28;20050;-69
2024/01/14 08:26:04;;;;;;;0.10;0.10;;;3.70;92.20;;;;;;4990119;28;20046;-69
2024/01/14 08:28:35;;;;;;;0.10;0.10;;;3.70;92.20;;;;;;4991431;28;20459;-69
2024/01/14 08:31:01;;;;;;;0.10;0.10;;;3.80;92.20;;;;;;4990705;28;20049;-69
2024/01/14 08:33:28;;;;;;;0.00;0.00;;;3.70;92.20;;;;;;4997809;28;20038;-69
2024/01/14 08:35:54;;;;;;;0.10;0.10;;;3.80;92.20;;;;;;4991251;28;20043;-69
2024/01/14 08:38:20;;;;;;;0.10;0.10;;;3.80;92.00;;;;;;4990798;28;20035;-69
2024/01/14 08:40:46;;;;;;;0.08;0.08;;;3.90;92.10;;;;;;4995170;28;20038;-69
2024/01/14 08:43:12;;;;;;;0.10;0.10;;;3.90;92.10;;;;;;4989676;28;20177;-69
2024/01/14 08:45:38;;;;;;;0.05;0.05;;;3.80;91.90;;;;;;4990327;28;20622;-69
2024/01/14 08:48:06;;;;;;;0.10;0.10;;;3.80;92.00;;;;;;4994417;28;20046;-69
2024/01/14 08:50:32;;;;;;;0.00;0.00;;;3.80;91.90;;;;;;4990027;28;20062;-68
2024/01/14 08:52:58;;;;;;;0.10;0.10;;;3.90;92.00;;;;;;4990360;28;20042;-69
2024/01/14 08:55:23;;;;;;;0.20;0.20;;;3.80;91.80;;;;;;4990534;28;20045;-69
2024/01/14 08:57:49;;;;;;;0.10;0.10;;;3.80;91.90;;;;;;4987943;28;20113;-69
2024/01/14 09:00:15;;;;;;;0.00;0.00;;;3.90;91.90;;;;;;4986407;28;20042;-69
2024/01/14 09:02:41;;;;;;;0.10;0.10;;;3.90;91.90;;;;;;4990638;28;20042;-69
2024/01/14 09:05:06;;;;;;;0.10;0.10;;;3.90;91.70;;;;;;4990799;28;20042;-69
2024/01/14 09:07:33;;;;;;;0.10;0.10;;;3.90;91.90;;;;;;4990349;28;20499;-69
2024/01/14 09:09:59;;;;;;;0.10;0.10;;;4.00;91.60;;;;;;4981887;28;20124;-68
2024/01/14 09:12:25;;;;;;;0.85;0.85;;;4.00;91.70;;;;;;4990739;28;20508;-69
2024/01/14 09:14:51;;;;;;;0.10;0.10;;;4.00;91.80;;;;;;4988595;28;20074;-69
2024/01/14 09:17:17;;;;;;;0.20;0.20;;;4.10;91.80;;;;;;4989494;28;20042;-69
2024/01/14 09:19:44;;;;;;;0.00;0.00;;;4.00;91.70;;;;;;5001462;28;20173;-69
2024/01/14 09:22:10;;;;;;;0.00;0.00;;;4.00;91.70;;;;;;4989763;28;20038;-69
2024/01/14 09:24:35;;;;;;;0.10;0.10;;;4.00;91.80;;;;;;4989198;28;20061;-69
2024/01/14 09:27:03;;;;;;;0.00;0.00;;;4.00;91.80;;;;;;4988928;28;20145;-69
2024/01/14 09:29:29;;;;;;;0.10;0.10;;;4.10;91.90;;;;;;4999605;28;20582;-69
2024/01/14 09:31:56;;;;;;;0.00;0.00;;;4.20;92.00;;;;;;5009575;28;20112;-70
2024/01/14 09:34:22;;;;;;;0.00;0.00;;;4.20;91.90;;;;;;5004551;28;20061;-70
2024/01/14 09:36:47;;;;;;;0.00;0.00;;;4.20;92.10;;;;;;4989583;28;20034;-70
2024/01/14 09:39:13;;;;;;;0.10;0.10;;;4.20;92.10;;;;;;4988947;28;20133;-70
2024/01/14 09:42:04;;;;;;;0.00;0.00;;;4.20;92.10;;;;;;4995714;28;20064;-69
2024/01/14 09:44:34;;;;;;;0.00;0.00;;;4.20;92.00;;;;;;4990069;28;20046;-69
2024/01/14 09:47:00;;;;;;;0.00;0.00;;;4.20;92.10;;;;;;4994028;28;20044;-69
2024/01/14 09:49:26;;;;;;;0.00;0.00;;;4.20;92.20;;;;;;5003934;28;20054;-69
2024/01/14 09:51:53;;;;;;;0.08;0.08;;;4.30;92.20;;;;;;4993947;28;20046;-69
2024/01/14 09:54:19;;;;;;;0.10;0.10;;;4.30;92.20;;;;;;4991768;28;20051;-70
2024/01/14 09:56:48;;;;;;;0.10;0.10;;;4.40;92.30;;;;;;5008445;28;20046;-70
2024/01/14 09:59:17;;;;;;;0.00;0.00;;;4.40;92.30;;;;;;4997004;28;20053;-69
2024/01/14 10:01:43;;;;;;;0.05;0.05;;;4.40;92.40;;;;;;4990410;28;20511;-69
2024/01/14 10:04:09;;;;;;;0.20;0.20;;;4.50;92.30;;;;;;4985848;28;20415;-69
2024/01/14 10:06:35;;;;;;;0.10;0.10;;;4.50;92.30;;;;;;4987122;28;20042;-69
2024/01/14 10:09:01;;;;;;;0.00;0.00;;;4.50;92.30;;;;;;4988123;28;20050;-69
2024/01/14 10:11:27;;;;;;;0.00;0.00;;;4.60;92.30;;;;;;4989792;28;20054;-70
2024/01/14 10:13:53;;;;;;;0.00;0.00;;;4.50;92.20;;;;;;4989412;28;20046;-69
2024/01/14 10:16:18;;;;;;;0.00;0.00;;;4.60;92.30;;;;;;4989599;28;20165;-69
2024/01/14 10:18:44;;;;;;;0.20;0.20;;;4.60;92.10;;;;;;4989254;28;20400;-70
2024/01/14 10:21:11;;;;;;;0.00;0.00;;;4.60;92.10;;;;;;4989491;28;20408;-69
2024/01/14 10:23:38;;;;;;;0.00;0.00;;;4.70;92.10;;;;;;4989096;28;20058;-69
2024/01/14 10:26:04;;;;;;;0.63;0.63;;;4.70;91.90;;;;;;4989329;28;20427;-69
2024/01/14 10:28:34;;;;;;;0.10;0.10;;;4.70;91.80;;;;;;4987703;28;20042;-69
2024/01/14 10:31:02;;;;;;;0.00;0.00;;;4.70;91.60;;;;;;4992791;28;20041;-69
2024/01/14 10:33:32;;;;;;;0.00;0.00;;;4.60;91.40;;;;;;4997835;28;20053;-69
2024/01/14 10:35:59;;;;;;;0.00;0.00;;;4.70;91.20;;;;;;4990457;28;20250;-69
2024/01/14 10:38:25;;;;;;;0.00;0.00;;;4.70;90.90;;;;;;4992759;28;20080;-69
2024/01/14 10:40:52;;;;;;;0.00;0.00;;;4.60;90.60;;;;;;4995673;28;20153;-69
2024/01/14 10:43:17;;;;;;;0.00;0.00;;;4.70;90.70;;;;;;5003708;28;20050;-70
2024/01/14 10:45:47;;;;;;;0.00;0.00;;;4.70;90.30;;;;;;5003753;28;20057;-69
2024/01/14 10:48:13;;;;;;;0.35;0.35;;;4.70;90.40;;;;;;4993785;28;20046;-69
2024/01/14 10:50:42;;;;;;;0.10;0.10;;;4.60;90.20;;;;;;5001294;28;20074;-69
2024/01/14 10:53:20;;;;;;;0.00;0.00;;;4.60;90.30;;;;;;4993983;28;20041;-69
2024/01/14 10:55:49;;;;;;;0.00;0.00;;;4.60;90.40;;;;;;4987623;28;20109;-70
2024/01/14 10:58:26;;;;;;;0.00;0.00;;;4.60;90.20;;;;;;4992794;28;20053;-69
2024/01/14 11:00:59;;;;;;;0.00;0.00;;;4.60;90.20;;;;;;4996225;28;20081;-69
2024/01/14 11:03:27;;;;;;;0.10;0.10;;;4.60;89.90;;;;;;4989292;28;20046;-69
2024/01/14 11:05:53;;;;;;;0.00;0.00;;;4.60;90.10;;;;;;4995515;28;20823;-69
2024/01/14 11:08:21;;;;;;;0.10;0.10;;;4.60;90.10;;;;;;4994186;28;20562;-69
2024/01/14 11:10:47;;;;;;;0.10;0.10;;;4.60;90.20;;;;;;4991552;28;20046;-69
2024/01/14 11:13:26;;;;;;;0.10;0.10;;;4.60;90.20;;;;;;4988424;28;20073;-69
2024/01/14 11:16:15;;;;;;;0.00;0.00;;;4.60;90.40;;;;;;4992378;28;20855;-69
2024/01/14 11:19:03;;;;;;;0.00;0.00;;;4.60;90.40;;;;;;4988177;28;20045;-69
2024/01/14 11:22:06;;;;;;;0.10;0.10;;;4.80;90.30;;;;;;4990405;28;20046;-69
2024/01/14 11:24:31;;;;;;;0.00;0.00;;;4.70;90.40;;;;;;4989112;28;20058;-69
2024/01/14 11:26:57;;;;;;;0.00;0.00;;;4.80;90.50;;;;;;4987644;28;20772;-69
2024/01/14 11:29:41;;;;;;;0.00;0.00;;;4.80;90.60;;;;;;4988092;28;20034;-69
2024/01/14 11:32:09;;;;;;;0.00;0.00;;;4.80;90.60;;;;;;4988930;28;20129;-69
2024/01/14 11:34:48;;;;;;;0.00;0.00;;;4.90;90.60;;;;;;4997362;28;20038;-69
2024/01/14 11:37:29;;;;;;;0.05;0.05;;;5.00;90.70;;;;;;4995947;28;20098;-69
2024/01/14 11:40:07;;;;;;;0.10;0.10;;;5.10;90.40;;;;;;4987231;28;20077;-69
2024/01/14 11:42:37;;;;;;;0.00;0.00;;;5.00;90.30;;;;;;4998531;28;20157;-69
2024/01/14 11:45:11;;;;;;;0.00;0.00;;;5.10;90.50;;;;;;5006189;28;20046;-69
2024/01/14 11:47:46;;;;;;;0.00;0.00;;;5.10;90.30;;;;;;4993427;28;20057;-70
2024/01/14 11:50:16;;;;;;;0.00;0.00;;;5.10;90.20;;;;;;4989785;28;20046;-70
2024/01/14 11:52:44;;;;;;;0.00;0.00;;;5.10;90.00;;;;;;4986925;28;20077;-69
2024/01/14 11:55:16;;;;;;;0.00;0.00;;;5.00;89.90;;;;;;5004921;28;20050;-69
2024/01/14 11:57:44;;;;;;;0.00;0.00;;;5.00;89.90;;;;;;4998224;28;20047;-69
2024/01/14 12:00:12;;;;;;;0.50;0.50;;;5.00;89.90;;;;;;4994250;28;20491;-69
2024/01/14 12:02:38;;;;;;;0.10;0.10;;;4.90;89.70;;;;;;4991027;28;20534;-69
2024/01/14 12:05:16;;;;;;;0.20;0.20;;;4.90;89.70;;;;;;4985234;28;20045;-69
2024/01/14 12:07:44;;;;;;;0.00;0.00;;;4.90;89.90;;;;;;4999281;28;20042;-69
2024/01/14 12:10:14;;;;;;;0.00;0.00;;;4.90;89.60;;;;;;5004988;28;20045;-69
2024/01/14 12:12:43;;;;;;;0.30;0.30;;;5.00;89.80;;;;;;4986190;28;20038;-69
2024/01/14 12:15:09;;;;;;;0.00;0.00;;;4.90;89.70;;;;;;4986636;28;20065;-69
2024/01/14 12:17:35;;;;;;;0.22;0.22;;;5.00;89.80;;;;;;4984237;28;20510;-69
2024/01/14 12:20:04;;;;;;;0.00;0.00;;;5.00;89.80;;;;;;4987120;28;20050;-69
2024/01/14 12:22:34;;;;;;;0.00;0.00;;;5.10;89.80;;;;;;4984845;28;20129;-69
2024/01/14 12:25:02;;;;;;;0.10;0.10;;;5.10;90.00;;;;;;4996385;28;20571;-69
2024/01/14 12:27:27;;;;;;;0.00;0.00;;;5.20;89.80;;;;;;4981421;28;20069;-69
2024/01/14 12:29:54;;;;;;;0.00;0.00;;;5.20;89.70;;;;;;4985340;28;20924;-68
2024/01/14 12:32:20;;;;;;;0.00;0.00;;;5.20;89.50;;;;;;4986260;28;20050;-69
2024/01/14 12:34:49;;;;;;;0.00;0.00;;;5.10;89.40;;;;;;4985758;28;20064;-69
2024/01/14 12:37:15;;;;;;;0.00;0.00;;;5.10;89.50;;;;;;4987077;28;20046;-69
2024/01/14 12:39:40;;;;;;;0.10;0.10;;;5.10;89.20;;;;;;4982459;28;20046;-69
2024/01/14 12:42:06;;;;;;;0.00;0.00;;;5.10;89.30;;;;;;4981820;28;20054;-68
2024/01/14 12:44:33;;;;;;;0.00;0.00;;;5.10;89.30;;;;;;4980020;28;20563;-69
2024/01/14 12:47:08;;;;;;;0.00;0.00;;;5.20;89.10;;;;;;4984676;28;20054;-69
2024/01/14 12:49:34;;;;;;;0.00;0.00;;;5.10;89.30;;;;;;4983425;28;20053;-69
2024/01/14 12:52:07;;;;;;;0.00;0.00;;;5.20;89.20;;;;;;4981416;28;20051;-69
2024/01/14 12:54:33;;;;;;;0.00;0.00;;;5.10;89.30;;;;;;4979264;28;20043;-69
2024/01/14 12:57:01;;;;;;;0.10;0.10;;;5.30;88.90;;;;;;4982982;28;20128;-69